sensor_id;sensor_type;location;lat;lon;timestamp;noise_LAeq;noise_LA_min;noise_LA_max;noise_LA01;noise_LA95
78074;Laerm;67283;50.960;13.856;2023-02-28T00:00:57;38.17;36.52;39.74;;
78074;Laerm;67283;50.960;13.856;2023-02-28T00:03:25;38.11;36.00;39.71;;
78074;Laerm;67283;50.960;13.856;2023-02-28T00:05:53;59.17;36.45;83.95;;
78074;Laerm;67283;50.960;13.856;2023-02-28T00:08:21;51.42;36.49;69.89;;
78074;Laerm;67283;50.960;13.856;2023-02-28T00:10:52;51.93;36.57;70.41;;
78074;Laerm;67283;50.960;13.856;2023-02-28T00:13:20;38.25;36.46;44.73;;
78074;Laerm;67283;50.960;13.856;2023-02-28T00:15:57;38.16;36.49;40.85;;
78074;Laerm;67283;50.960;13.856;2023-02-28T00:18:26;38.09;36.09;40.53;;
78074;Laerm;67283;50.960;13.856;2023-02-28T00:20:54;56.62;36.37;75.87;;
78074;Laerm;67283;50.960;13.856;2023-02-28T00:23:22;58.49;36.38;77.54;;
78074;Laerm;67283;50.960;13.856;2023-02-28T00:25:53;43.69;36.33;58.78;;
78074;Laerm;67283;50.960;13.856;2023-02-28T00:28:21;38.27;36.18;43.20;;
78074;Laerm;67283;50.960;13.856;2023-02-28T00:30:49;38.10;36.27;39.79;;
78074;Laerm;67283;50.960;13.856;2023-02-28T00:33:18;38.00;36.34;39.55;;
78074;Laerm;67283;50.960;13.856;2023-02-28T00:35:46;37.99;36.10;39.83;;
78074;Laerm;67283;50.960;13.856;2023-02-28T00:38:14;37.97;36.33;42.34;;
78074;Laerm;67283;50.960;13.856;2023-02-28T00:40:42;38.04;36.02;41.96;;
78074;Laerm;67283;50.960;13.856;2023-02-28T00:43:13;38.04;36.20;39.79;;
78074;Laerm;67283;50.960;13.856;2023-02-28T00:45:41;38.06;36.28;40.38;;
78074;Laerm;67283;50.960;13.856;2023-02-28T00:48:09;38.14;36.38;39.81;;
78074;Laerm;67283;50.960;13.856;2023-02-28T00:50:37;38.23;36.26;39.95;;
78074;Laerm;67283;50.960;13.856;2023-02-28T00:53:05;38.26;36.31;40.11;;
78074;Laerm;67283;50.960;13.856;2023-02-28T00:55:33;57.83;36.57;74.89;;
78074;Laerm;67283;50.960;13.856;2023-02-28T00:58:01;57.83;36.57;74.89;;
78074;Laerm;67283;50.960;13.856;2023-02-28T01:00:32;46.26;36.40;65.78;;
78074;Laerm;67283;50.960;13.856;2023-02-28T01:03:00;46.26;36.40;65.78;;
78074;Laerm;67283;50.960;13.856;2023-02-28T01:05:28;38.06;36.18;43.23;;
78074;Laerm;67283;50.960;13.856;2023-02-28T01:07:56;57.23;36.09;75.86;;
78074;Laerm;67283;50.960;13.856;2023-02-28T01:10:24;46.08;36.19;62.06;;
78074;Laerm;67283;50.960;13.856;2023-02-28T01:12:56;38.01;36.03;39.84;;
78074;Laerm;67283;50.960;13.856;2023-02-28T01:15:24;37.93;36.24;39.58;;
78074;Laerm;67283;50.960;13.856;2023-02-28T01:17:55;38.00;36.20;39.58;;
78074;Laerm;67283;50.960;13.856;2023-02-28T01:20:23;38.05;36.46;39.74;;
78074;Laerm;67283;50.960;13.856;2023-02-28T01:22:51;38.07;35.86;39.45;;
78074;Laerm;67283;50.960;13.856;2023-02-28T01:25:19;47.19;36.29;60.42;;
78074;Laerm;67283;50.960;13.856;2023-02-28T01:27:47;38.62;36.16;46.92;;
78074;Laerm;67283;50.960;13.856;2023-02-28T01:30:15;38.02;36.46;39.72;;
78074;Laerm;67283;50.960;13.856;2023-02-28T01:32:43;37.94;35.97;40.22;;
78074;Laerm;67283;50.960;13.856;2023-02-28T01:35:14;37.86;35.71;39.29;;
78074;Laerm;67283;50.960;13.856;2023-02-28T01:37:42;53.02;36.07;72.84;;
78074;Laerm;67283;50.960;13.856;2023-02-28T01:40:11;37.95;36.32;39.73;;
78074;Laerm;67283;50.960;13.856;2023-02-28T01:42:39;37.92;36.05;39.42;;
78074;Laerm;67283;50.960;13.856;2023-02-28T01:45:16;37.93;36.19;39.63;;
78074;Laerm;67283;50.960;13.856;2023-02-28T01:47:46;37.85;36.18;39.64;;
78074;Laerm;67283;50.960;13.856;2023-02-28T01:50:19;37.88;36.23;39.27;;
78074;Laerm;67283;50.960;13.856;2023-02-28T01:52:48;37.93;35.81;40.10;;
78074;Laerm;67283;50.960;13.856;2023-02-28T01:55:17;37.94;36.26;39.60;;
78074;Laerm;67283;50.960;13.856;2023-02-28T01:57:48;37.81;36.04;39.54;;
78074;Laerm;67283;50.960;13.856;2023-02-28T02:00:17;37.83;36.07;39.37;;
78074;Laerm;67283;50.960;13.856;2023-02-28T02:02:47;37.83;36.17;39.66;;
78074;Laerm;67283;50.960;13.856;2023-02-28T02:05:19;37.94;36.16;41.29;;
78074;Laerm;67283;50.960;13.856;2023-02-28T02:07:48;51.21;36.11;69.69;;
78074;Laerm;67283;50.960;13.856;2023-02-28T02:10:18;37.80;35.88;41.03;;
78074;Laerm;67283;50.960;13.856;2023-02-28T02:12:51;37.79;36.11;39.53;;
78074;Laerm;67283;50.960;13.856;2023-02-28T02:15:24;37.89;36.16;39.45;;
78074;Laerm;67283;50.960;13.856;2023-02-28T02:17:55;37.90;36.10;39.48;;
78074;Laerm;67283;50.960;13.856;2023-02-28T02:25:54;37.83;36.06;39.45;;
78074;Laerm;67283;50.960;13.856;2023-02-28T02:36:55;37.86;36.07;39.91;;
78074;Laerm;67283;50.960;13.856;2023-02-28T02:39:27;52.59;36.07;72.77;;
78074;Laerm;67283;50.960;13.856;2023-02-28T02:41:58;37.94;36.09;39.55;;
78074;Laerm;67283;50.960;13.856;2023-02-28T02:44:27;37.94;35.83;39.62;;
78074;Laerm;67283;50.960;13.856;2023-02-28T02:46:58;37.94;35.83;39.62;;
78074;Laerm;67283;50.960;13.856;2023-02-28T02:49:28;37.99;36.13;40.19;;
78074;Laerm;67283;50.960;13.856;2023-02-28T02:52:02;37.84;35.96;39.34;;
78074;Laerm;67283;50.960;13.856;2023-02-28T02:54:32;37.83;36.12;39.59;;
78074;Laerm;67283;50.960;13.856;2023-02-28T02:57:04;37.85;36.13;39.37;;
78074;Laerm;67283;50.960;13.856;2023-02-28T02:59:33;37.83;35.94;40.02;;
78074;Laerm;67283;50.960;13.856;2023-02-28T03:02:04;46.37;35.93;63.64;;
78074;Laerm;67283;50.960;13.856;2023-02-28T03:04:34;38.48;36.38;52.71;;
78074;Laerm;67283;50.960;13.856;2023-02-28T03:07:08;52.87;36.06;70.34;;
78074;Laerm;67283;50.960;13.856;2023-02-28T03:09:37;52.57;36.19;70.49;;
78074;Laerm;67283;50.960;13.856;2023-02-28T03:12:06;51.97;35.76;69.62;;
78074;Laerm;67283;50.960;13.856;2023-02-28T03:14:40;38.00;36.22;39.45;;
78074;Laerm;67283;50.960;13.856;2023-02-28T03:17:21;51.00;36.27;69.48;;
78074;Laerm;67283;50.960;13.856;2023-02-28T03:19:54;53.18;36.36;70.54;;
78074;Laerm;67283;50.960;13.856;2023-02-28T03:22:29;38.00;36.20;39.74;;
78074;Laerm;67283;50.960;13.856;2023-02-28T03:25:03;37.92;36.21;39.44;;
78074;Laerm;67283;50.960;13.856;2023-02-28T03:27:36;37.93;36.17;40.08;;
78074;Laerm;67283;50.960;13.856;2023-02-28T03:30:09;37.82;36.24;40.09;;
78074;Laerm;67283;50.960;13.856;2023-02-28T03:32:38;37.98;36.21;41.23;;
78074;Laerm;67283;50.960;13.856;2023-02-28T03:35:09;52.60;36.23;71.53;;
78074;Laerm;67283;50.960;13.856;2023-02-28T03:37:43;55.50;36.40;69.98;;
78074;Laerm;67283;50.960;13.856;2023-02-28T03:40:13;50.14;36.17;67.83;;
78074;Laerm;67283;50.960;13.856;2023-02-28T03:42:44;52.26;36.28;70.62;;
78074;Laerm;67283;50.960;13.856;2023-02-28T03:45:15;56.66;36.37;72.53;;
78074;Laerm;67283;50.960;13.856;2023-02-28T03:47:45;50.28;36.31;69.33;;
78074;Laerm;67283;50.960;13.856;2023-02-28T03:50:16;51.57;36.59;70.32;;
78074;Laerm;67283;50.960;13.856;2023-02-28T03:52:49;52.39;36.86;71.17;;
78074;Laerm;67283;50.960;13.856;2023-02-28T03:55:19;51.16;36.74;71.36;;
78074;Laerm;67283;50.960;13.856;2023-02-28T03:57:51;47.95;36.61;68.18;;
78074;Laerm;67283;50.960;13.856;2023-02-28T04:00:24;54.67;36.59;69.48;;
78074;Laerm;67283;50.960;13.856;2023-02-28T04:02:53;58.06;36.06;72.51;;
78074;Laerm;67283;50.960;13.856;2023-02-28T04:05:22;48.89;36.37;70.18;;
78074;Laerm;67283;50.960;13.856;2023-02-28T04:07:52;59.47;36.27;77.74;;
78074;Laerm;67283;50.960;13.856;2023-02-28T04:10:21;53.08;36.39;73.53;;
78074;Laerm;67283;50.960;13.856;2023-02-28T04:12:49;57.72;36.47;74.91;;
78074;Laerm;67283;50.960;13.856;2023-02-28T04:15:17;61.87;36.38;80.97;;
78074;Laerm;67283;50.960;13.856;2023-02-28T04:17:49;53.78;36.40;68.82;;
78074;Laerm;67283;50.960;13.856;2023-02-28T04:20:17;57.54;36.79;70.21;;
78074;Laerm;67283;50.960;13.856;2023-02-28T04:22:45;57.54;36.79;70.21;;
78074;Laerm;67283;50.960;13.856;2023-02-28T04:25:16;63.30;37.11;80.80;;
78074;Laerm;67283;50.960;13.856;2023-02-28T04:27:44;58.09;36.38;72.96;;
78074;Laerm;67283;50.960;13.856;2023-02-28T04:30:12;63.63;39.43;74.61;;
78074;Laerm;67283;50.960;13.856;2023-02-28T04:32:41;60.74;36.67;75.00;;
78074;Laerm;67283;50.960;13.856;2023-02-28T04:35:09;60.74;36.67;75.00;;
78074;Laerm;67283;50.960;13.856;2023-02-28T04:37:37;59.48;36.62;72.89;;
78074;Laerm;67283;50.960;13.856;2023-02-28T04:40:05;60.72;36.85;73.84;;
78074;Laerm;67283;50.960;13.856;2023-02-28T04:42:36;60.72;36.85;73.84;;
78074;Laerm;67283;50.960;13.856;2023-02-28T04:45:05;60.74;37.51;74.04;;
78074;Laerm;67283;50.960;13.856;2023-02-28T04:47:35;60.62;40.44;72.71;;
78074;Laerm;67283;50.960;13.856;2023-02-28T04:50:03;61.11;38.44;75.38;;
78074;Laerm;67283;50.960;13.856;2023-02-28T04:52:31;58.56;38.04;72.49;;
78074;Laerm;67283;50.960;13.856;2023-02-28T04:54:59;59.87;37.54;71.42;;
78074;Laerm;67283;50.960;13.856;2023-02-28T04:57:28;58.31;37.88;71.26;;
78074;Laerm;67283;50.960;13.856;2023-02-28T04:59:58;59.42;37.27;74.11;;
78074;Laerm;67283;50.960;13.856;2023-02-28T05:02:33;56.49;37.37;70.64;;
78074;Laerm;67283;50.960;13.856;2023-02-28T05:05:01;60.21;37.54;72.68;;
78074;Laerm;67283;50.960;13.856;2023-02-28T05:07:29;59.93;39.01;72.50;;
78074;Laerm;67283;50.960;13.856;2023-02-28T05:09:58;57.66;37.50;73.14;;
78074;Laerm;67283;50.960;13.856;2023-02-28T05:12:26;59.70;37.17;71.60;;
78074;Laerm;67283;50.960;13.856;2023-02-28T05:14:54;56.27;36.82;71.59;;
78074;Laerm;67283;50.960;13.856;2023-02-28T05:17:24;62.04;39.03;73.31;;
78074;Laerm;67283;50.960;13.856;2023-02-28T05:19:52;60.40;42.80;73.13;;
78074;Laerm;67283;50.960;13.856;2023-02-28T05:22:20;63.51;40.71;76.61;;
78074;Laerm;67283;50.960;13.856;2023-02-28T05:24:49;59.30;38.23;72.32;;
78074;Laerm;67283;50.960;13.856;2023-02-28T05:27:17;61.21;40.72;72.45;;
78074;Laerm;67283;50.960;13.856;2023-02-28T05:29:45;62.44;39.61;76.00;;
78074;Laerm;67283;50.960;13.856;2023-02-28T05:32:13;61.47;37.39;75.75;;
78074;Laerm;67283;50.960;13.856;2023-02-28T05:34:43;61.04;38.23;73.87;;
78074;Laerm;67283;50.960;13.856;2023-02-28T05:37:12;62.91;43.59;74.25;;
78074;Laerm;67283;50.960;13.856;2023-02-28T05:39:41;62.83;38.52;77.84;;
78074;Laerm;67283;50.960;13.856;2023-02-28T05:42:09;57.83;38.27;71.70;;
78074;Laerm;67283;50.960;13.856;2023-02-28T05:44:37;65.19;44.63;79.25;;
78074;Laerm;67283;50.960;13.856;2023-02-28T05:47:05;61.34;38.16;75.39;;
78074;Laerm;67283;50.960;13.856;2023-02-28T05:49:33;64.76;38.68;79.21;;
78074;Laerm;67283;50.960;13.856;2023-02-28T05:52:04;64.76;38.68;79.21;;
78074;Laerm;67283;50.960;13.856;2023-02-28T05:54:32;63.93;38.52;76.86;;
78074;Laerm;67283;50.960;13.856;2023-02-28T05:57:00;62.28;40.59;73.04;;
78074;Laerm;67283;50.960;13.856;2023-02-28T05:59:28;62.73;40.99;77.97;;
78074;Laerm;67283;50.960;13.856;2023-02-28T06:01:56;61.99;39.74;73.23;;
78074;Laerm;67283;50.960;13.856;2023-02-28T06:04:25;62.51;37.68;74.27;;
78074;Laerm;67283;50.960;13.856;2023-02-28T06:06:53;64.14;41.77;77.31;;
78074;Laerm;67283;50.960;13.856;2023-02-28T06:09:25;60.24;38.92;74.03;;
78074;Laerm;67283;50.960;13.856;2023-02-28T06:11:53;61.79;39.53;74.11;;
78074;Laerm;67283;50.960;13.856;2023-02-28T06:14:21;62.51;38.34;72.80;;
78074;Laerm;67283;50.960;13.856;2023-02-28T06:16:49;60.99;38.97;73.53;;
78074;Laerm;67283;50.960;13.856;2023-02-28T06:19:18;65.87;39.31;80.59;;
78074;Laerm;67283;50.960;13.856;2023-02-28T06:21:48;64.88;41.87;77.40;;
78074;Laerm;67283;50.960;13.856;2023-02-28T06:24:17;62.94;40.66;74.06;;
78074;Laerm;67283;50.960;13.856;2023-02-28T06:26:48;60.95;38.68;73.82;;
78074;Laerm;67283;50.960;13.856;2023-02-28T06:29:17;63.29;38.05;77.97;;
78074;Laerm;67283;50.960;13.856;2023-02-28T06:31:45;63.64;38.30;75.95;;
78074;Laerm;67283;50.960;13.856;2023-02-28T06:34:13;60.54;38.30;73.38;;
78074;Laerm;67283;50.960;13.856;2023-02-28T06:36:42;63.66;38.56;74.53;;
78074;Laerm;67283;50.960;13.856;2023-02-28T06:39:10;60.09;38.69;73.53;;
78074;Laerm;67283;50.960;13.856;2023-02-28T06:41:38;60.87;37.86;73.97;;
78074;Laerm;67283;50.960;13.856;2023-02-28T06:44:13;51.57;37.36;67.80;;
78074;Laerm;67283;50.960;13.856;2023-02-28T06:46:42;60.32;40.32;75.03;;
78074;Laerm;67283;50.960;13.856;2023-02-28T06:49:11;64.11;37.91;80.41;;
78074;Laerm;67283;50.960;13.856;2023-02-28T06:51:39;60.54;38.43;73.35;;
78074;Laerm;67283;50.960;13.856;2023-02-28T06:54:10;62.12;38.12;76.82;;
78074;Laerm;67283;50.960;13.856;2023-02-28T06:56:38;62.12;38.12;76.82;;
78074;Laerm;67283;50.960;13.856;2023-02-28T06:59:07;65.23;37.78;87.36;;
78074;Laerm;67283;50.960;13.856;2023-02-28T07:01:37;61.35;40.39;73.33;;
78074;Laerm;67283;50.960;13.856;2023-02-28T07:04:06;60.10;37.93;77.70;;
78074;Laerm;67283;50.960;13.856;2023-02-28T07:06:34;63.45;38.55;74.38;;
78074;Laerm;67283;50.960;13.856;2023-02-28T07:09:02;61.90;38.04;73.90;;
78074;Laerm;67283;50.960;13.856;2023-02-28T07:11:31;62.04;39.38;79.57;;
78074;Laerm;67283;50.960;13.856;2023-02-28T07:14:00;59.66;38.22;72.08;;
78074;Laerm;67283;50.960;13.856;2023-02-28T07:16:28;58.68;38.03;72.46;;
78074;Laerm;67283;50.960;13.856;2023-02-28T07:18:58;66.66;37.66;81.69;;
78074;Laerm;67283;50.960;13.856;2023-02-28T07:21:27;57.54;37.71;72.75;;
78074;Laerm;67283;50.960;13.856;2023-02-28T07:23:55;60.52;37.33;77.79;;
78074;Laerm;67283;50.960;13.856;2023-02-28T07:26:23;56.64;38.05;73.49;;
78074;Laerm;67283;50.960;13.856;2023-02-28T07:28:51;62.27;40.73;77.24;;
78074;Laerm;67283;50.960;13.856;2023-02-28T07:31:19;58.98;37.84;73.11;;
78074;Laerm;67283;50.960;13.856;2023-02-28T07:33:47;59.49;38.23;73.72;;
78074;Laerm;67283;50.960;13.856;2023-02-28T07:36:18;60.75;38.55;71.63;;
78074;Laerm;67283;50.960;13.856;2023-02-28T07:38:47;55.94;38.29;73.18;;
78074;Laerm;67283;50.960;13.856;2023-02-28T07:41:16;61.10;39.12;76.33;;
78074;Laerm;67283;50.960;13.856;2023-02-28T07:43:44;59.41;39.01;71.99;;
78074;Laerm;67283;50.960;13.856;2023-02-28T07:46:13;58.44;39.28;70.43;;
78074;Laerm;67283;50.960;13.856;2023-02-28T07:48:43;59.38;39.15;75.07;;
78074;Laerm;67283;50.960;13.856;2023-02-28T07:51:11;60.41;39.09;72.70;;
78074;Laerm;67283;50.960;13.856;2023-02-28T07:53:42;59.92;39.83;72.45;;
78074;Laerm;67283;50.960;13.856;2023-02-28T07:56:10;59.40;38.30;72.24;;
78074;Laerm;67283;50.960;13.856;2023-02-28T07:58:38;62.38;38.80;75.64;;
78074;Laerm;67283;50.960;13.856;2023-02-28T08:01:07;63.21;39.45;77.22;;
78074;Laerm;67283;50.960;13.856;2023-02-28T08:03:35;59.00;39.19;71.38;;
78074;Laerm;67283;50.960;13.856;2023-02-28T08:06:04;59.00;39.19;71.38;;
78074;Laerm;67283;50.960;13.856;2023-02-28T08:08:32;58.95;38.25;73.68;;
78074;Laerm;67283;50.960;13.856;2023-02-28T08:11:03;62.95;39.14;78.95;;
78074;Laerm;67283;50.960;13.856;2023-02-28T08:13:31;56.18;37.92;71.55;;
78074;Laerm;67283;50.960;13.856;2023-02-28T08:16:00;58.07;37.36;73.48;;
78074;Laerm;67283;50.960;13.856;2023-02-28T08:18:29;63.48;37.63;79.96;;
78074;Laerm;67283;50.960;13.856;2023-02-28T08:20:57;61.36;39.97;73.64;;
78074;Laerm;67283;50.960;13.856;2023-02-28T08:23:25;57.35;38.11;71.29;;
78074;Laerm;67283;50.960;13.856;2023-02-28T08:25:54;60.07;37.77;75.72;;
78074;Laerm;67283;50.960;13.856;2023-02-28T08:28:25;58.43;39.79;72.46;;
78074;Laerm;67283;50.960;13.856;2023-02-28T08:30:53;55.57;38.12;72.14;;
78074;Laerm;67283;50.960;13.856;2023-02-28T08:33:21;58.09;38.00;70.55;;
78074;Laerm;67283;50.960;13.856;2023-02-28T08:35:51;61.53;40.08;76.19;;
78074;Laerm;67283;50.960;13.856;2023-02-28T08:38:19;60.25;40.19;71.79;;
78074;Laerm;67283;50.960;13.856;2023-02-28T08:40:48;58.99;37.04;71.69;;
78074;Laerm;67283;50.960;13.856;2023-02-28T08:43:16;58.36;37.29;71.06;;
78074;Laerm;67283;50.960;13.856;2023-02-28T08:45:46;60.58;36.69;73.56;;
78074;Laerm;67283;50.960;13.856;2023-02-28T08:48:14;60.86;38.03;71.01;;
78074;Laerm;67283;50.960;13.856;2023-02-28T08:50:43;62.18;37.32;78.08;;
78074;Laerm;67283;50.960;13.856;2023-02-28T08:53:11;61.09;37.84;71.97;;
78074;Laerm;67283;50.960;13.856;2023-02-28T08:55:39;59.87;37.80;71.86;;
78074;Laerm;67283;50.960;13.856;2023-02-28T08:58:07;61.75;37.83;75.58;;
78074;Laerm;67283;50.960;13.856;2023-02-28T09:00:35;59.35;37.34;74.34;;
78074;Laerm;67283;50.960;13.856;2023-02-28T09:03:06;61.71;36.58;78.72;;
78074;Laerm;67283;50.960;13.856;2023-02-28T09:05:34;54.49;36.66;70.02;;
78074;Laerm;67283;50.960;13.856;2023-02-28T09:08:02;59.21;37.51;90.93;;
78074;Laerm;67283;50.960;13.856;2023-02-28T09:10:31;58.94;37.29;74.35;;
78074;Laerm;67283;50.960;13.856;2023-02-28T09:12:59;63.10;39.61;75.07;;
78074;Laerm;67283;50.960;13.856;2023-02-28T09:15:27;58.76;41.20;71.31;;
78074;Laerm;67283;50.960;13.856;2023-02-28T09:17:55;58.76;41.20;71.31;;
78074;Laerm;67283;50.960;13.856;2023-02-28T09:20:26;58.71;36.34;72.95;;
78074;Laerm;67283;50.960;13.856;2023-02-28T09:22:54;57.06;37.02;70.81;;
78074;Laerm;67283;50.960;13.856;2023-02-28T09:25:22;62.40;37.04;77.14;;
78074;Laerm;67283;50.960;13.856;2023-02-28T09:27:50;58.68;36.93;73.61;;
78074;Laerm;67283;50.960;13.856;2023-02-28T09:30:19;59.37;36.76;72.89;;
78074;Laerm;67283;50.960;13.856;2023-02-28T09:32:47;60.69;39.50;71.87;;
78074;Laerm;67283;50.960;13.856;2023-02-28T09:35:18;64.86;39.72;85.19;;
78074;Laerm;67283;50.960;13.856;2023-02-28T09:37:50;60.29;36.87;80.58;;
78074;Laerm;67283;50.960;13.856;2023-02-28T09:40:18;57.27;36.91;73.26;;
78074;Laerm;67283;50.960;13.856;2023-02-28T09:42:47;66.24;39.72;83.01;;
78074;Laerm;67283;50.960;13.856;2023-02-28T09:45:18;59.95;37.55;72.64;;
78074;Laerm;67283;50.960;13.856;2023-02-28T09:47:49;59.93;36.87;72.99;;
78074;Laerm;67283;50.960;13.856;2023-02-28T09:50:22;60.37;39.67;72.94;;
78074;Laerm;67283;50.960;13.856;2023-02-28T09:53:01;55.90;36.88;71.03;;
78074;Laerm;67283;50.960;13.856;2023-02-28T09:55:30;62.02;38.28;75.07;;
78074;Laerm;67283;50.960;13.856;2023-02-28T09:58:01;62.52;41.05;75.63;;
78074;Laerm;67283;50.960;13.856;2023-02-28T10:00:30;51.32;38.95;68.79;;
78074;Laerm;67283;50.960;13.856;2023-02-28T10:03:04;60.59;41.33;71.51;;
78074;Laerm;67283;50.960;13.856;2023-02-28T10:05:35;57.22;38.28;73.69;;
78074;Laerm;67283;50.960;13.856;2023-02-28T10:08:10;59.65;37.33;75.12;;
78074;Laerm;67283;50.960;13.856;2023-02-28T10:10:40;59.08;37.25;72.25;;
78074;Laerm;67283;50.960;13.856;2023-02-28T10:13:13;59.52;37.81;73.19;;
78074;Laerm;67283;50.960;13.856;2023-02-28T10:15:42;60.46;39.14;77.15;;
78074;Laerm;67283;50.960;13.856;2023-02-28T10:18:13;61.45;39.41;74.93;;
78074;Laerm;67283;50.960;13.856;2023-02-28T10:20:42;59.36;38.75;73.21;;
78074;Laerm;67283;50.960;13.856;2023-02-28T10:23:21;60.47;39.15;72.91;;
78074;Laerm;67283;50.960;13.856;2023-02-28T10:25:50;58.79;36.92;72.70;;
78074;Laerm;67283;50.960;13.856;2023-02-28T10:28:21;58.75;40.72;71.35;;
78074;Laerm;67283;50.960;13.856;2023-02-28T10:30:50;58.75;40.72;71.35;;
78074;Laerm;67283;50.960;13.856;2023-02-28T10:33:20;59.54;38.22;76.50;;
78074;Laerm;67283;50.960;13.856;2023-02-28T10:35:49;68.60;37.08;86.37;;
78074;Laerm;67283;50.960;13.856;2023-02-28T10:38:22;59.96;36.85;71.33;;
78074;Laerm;67283;50.960;13.856;2023-02-28T10:40:50;59.96;36.85;71.33;;
78074;Laerm;67283;50.960;13.856;2023-02-28T10:43:20;60.97;36.43;75.73;;
78074;Laerm;67283;50.960;13.856;2023-02-28T10:45:53;58.93;37.91;74.09;;
78074;Laerm;67283;50.960;13.856;2023-02-28T10:48:26;58.79;37.03;71.30;;
78074;Laerm;67283;50.960;13.856;2023-02-28T10:50:55;59.55;39.16;71.58;;
78074;Laerm;67283;50.960;13.856;2023-02-28T10:53:37;56.93;36.44;74.45;;
78074;Laerm;67283;50.960;13.856;2023-02-28T10:56:12;62.16;37.38;73.25;;
78074;Laerm;67283;50.960;13.856;2023-02-28T10:58:46;61.29;38.79;74.73;;
78074;Laerm;67283;50.960;13.856;2023-02-28T11:01:14;61.21;40.10;72.86;;
78074;Laerm;67283;50.960;13.856;2023-02-28T11:03:43;64.90;38.48;79.98;;
78074;Laerm;67283;50.960;13.856;2023-02-28T11:06:13;58.93;37.81;72.39;;
78074;Laerm;67283;50.960;13.856;2023-02-28T11:08:49;62.50;37.64;77.68;;
78074;Laerm;67283;50.960;13.856;2023-02-28T11:11:18;61.02;37.39;76.46;;
78074;Laerm;67283;50.960;13.856;2023-02-28T11:13:47;54.13;36.27;69.41;;
78074;Laerm;67283;50.960;13.856;2023-02-28T11:16:15;60.82;37.36;73.31;;
78074;Laerm;67283;50.960;13.856;2023-02-28T11:18:46;60.82;37.36;73.31;;
78074;Laerm;67283;50.960;13.856;2023-02-28T11:21:16;60.82;36.80;76.78;;
78074;Laerm;67283;50.960;13.856;2023-02-28T11:23:46;60.83;37.14;76.29;;
78074;Laerm;67283;50.960;13.856;2023-02-28T11:26:35;62.06;38.23;76.51;;
78074;Laerm;67283;50.960;13.856;2023-02-28T11:29:09;58.90;36.63;71.06;;
78074;Laerm;67283;50.960;13.856;2023-02-28T11:31:37;61.93;39.66;77.37;;
78074;Laerm;67283;50.960;13.856;2023-02-28T11:34:22;57.70;37.12;71.60;;
78074;Laerm;67283;50.960;13.856;2023-02-28T11:36:51;56.79;37.43;72.72;;
78074;Laerm;67283;50.960;13.856;2023-02-28T11:39:21;56.05;36.89;70.12;;
78074;Laerm;67283;50.960;13.856;2023-02-28T11:41:58;56.23;36.80;68.75;;
78074;Laerm;67283;50.960;13.856;2023-02-28T11:44:35;57.43;36.84;73.34;;
78074;Laerm;67283;50.960;13.856;2023-02-28T11:47:09;59.55;37.47;72.50;;
78074;Laerm;67283;50.960;13.856;2023-02-28T11:49:47;59.55;37.47;72.50;;
78074;Laerm;67283;50.960;13.856;2023-02-28T11:52:20;62.24;36.75;78.97;;
78074;Laerm;67283;50.960;13.856;2023-02-28T11:54:52;60.31;37.99;77.25;;
78074;Laerm;67283;50.960;13.856;2023-02-28T11:57:35;50.70;36.06;69.63;;
78074;Laerm;67283;50.960;13.856;2023-02-28T12:00:07;61.38;36.57;76.53;;
78074;Laerm;67283;50.960;13.856;2023-02-28T12:02:44;54.92;36.54;69.10;;
78074;Laerm;67283;50.960;13.856;2023-02-28T12:05:22;59.35;37.15;72.43;;
78074;Laerm;67283;50.960;13.856;2023-02-28T12:07:55;59.35;37.15;72.43;;
78074;Laerm;67283;50.960;13.856;2023-02-28T12:10:26;60.69;36.00;74.90;;
78074;Laerm;67283;50.960;13.856;2023-02-28T12:13:01;58.04;36.94;72.92;;
78074;Laerm;67283;50.960;13.856;2023-02-28T12:15:37;58.25;37.31;73.10;;
78074;Laerm;67283;50.960;13.856;2023-02-28T12:18:26;60.82;36.28;73.64;;
78074;Laerm;67283;50.960;13.856;2023-02-28T12:20:57;63.44;37.33;83.46;;
78074;Laerm;67283;50.960;13.856;2023-02-28T12:23:37;60.96;37.82;74.04;;
78074;Laerm;67283;50.960;13.856;2023-02-28T12:26:12;59.25;36.79;71.66;;
78074;Laerm;67283;50.960;13.856;2023-02-28T12:28:47;61.05;36.80;76.99;;
78074;Laerm;67283;50.960;13.856;2023-02-28T12:31:18;58.20;37.18;72.33;;
78074;Laerm;67283;50.960;13.856;2023-02-28T12:33:48;61.98;36.20;74.75;;
78074;Laerm;67283;50.960;13.856;2023-02-28T12:36:19;60.18;37.58;73.62;;
78074;Laerm;67283;50.960;13.856;2023-02-28T12:38:50;62.73;38.02;74.39;;
78074;Laerm;67283;50.960;13.856;2023-02-28T12:41:22;59.63;37.17;72.88;;
78074;Laerm;67283;50.960;13.856;2023-02-28T12:44:00;57.97;37.46;70.34;;
78074;Laerm;67283;50.960;13.856;2023-02-28T12:46:30;60.39;38.62;75.31;;
78074;Laerm;67283;50.960;13.856;2023-02-28T12:49:00;58.23;38.08;72.21;;
78074;Laerm;67283;50.960;13.856;2023-02-28T12:51:32;63.89;37.95;79.76;;
78074;Laerm;67283;50.960;13.856;2023-02-28T12:54:04;61.62;38.88;74.48;;
78074;Laerm;67283;50.960;13.856;2023-02-28T12:56:39;66.22;37.69;85.28;;
78074;Laerm;67283;50.960;13.856;2023-02-28T12:59:13;59.59;38.58;73.12;;
78074;Laerm;67283;50.960;13.856;2023-02-28T13:04:41;61.66;41.88;72.33;;
78074;Laerm;67283;50.960;13.856;2023-02-28T13:07:21;60.51;38.18;75.53;;
78074;Laerm;67283;50.960;13.856;2023-02-28T13:09:57;60.51;38.18;75.53;;
78074;Laerm;67283;50.960;13.856;2023-02-28T13:12:27;58.36;38.01;72.70;;
78074;Laerm;67283;50.960;13.856;2023-02-28T13:15:04;61.25;39.49;71.94;;
78074;Laerm;67283;50.960;13.856;2023-02-28T13:17:36;60.06;38.26;70.82;;
78074;Laerm;67283;50.960;13.856;2023-02-28T13:20:13;56.00;36.99;70.52;;
78074;Laerm;67283;50.960;13.856;2023-02-28T13:22:43;60.16;37.72;73.50;;
78074;Laerm;67283;50.960;13.856;2023-02-28T13:27:55;63.19;43.58;83.17;;
78074;Laerm;67283;50.960;13.856;2023-02-28T13:33:24;63.40;42.51;78.09;;
78074;Laerm;67283;50.960;13.856;2023-02-28T13:38:39;61.12;37.90;78.94;;
78074;Laerm;67283;50.960;13.856;2023-02-28T13:44:00;58.57;37.40;71.37;;
78074;Laerm;67283;50.960;13.856;2023-02-28T13:46:28;58.88;36.47;72.45;;
78074;Laerm;67283;50.960;13.856;2023-02-28T13:49:01;58.88;36.47;72.45;;
78074;Laerm;67283;50.960;13.856;2023-02-28T13:51:46;59.48;37.28;73.10;;
78074;Laerm;67283;50.960;13.856;2023-02-28T13:54:33;61.49;40.33;71.96;;
78074;Laerm;67283;50.960;13.856;2023-02-28T13:57:06;60.25;38.21;71.85;;
78074;Laerm;67283;50.960;13.856;2023-02-28T13:59:39;62.47;37.39;73.60;;
78074;Laerm;67283;50.960;13.856;2023-02-28T14:02:27;60.79;36.59;74.13;;
78074;Laerm;67283;50.960;13.856;2023-02-28T14:05:04;61.31;37.40;72.08;;
78074;Laerm;67283;50.960;13.856;2023-02-28T14:07:44;60.99;37.48;73.20;;
78074;Laerm;67283;50.960;13.856;2023-02-28T14:10:24;62.43;37.69;75.64;;
78074;Laerm;67283;50.960;13.856;2023-02-28T14:12:57;62.43;37.69;75.64;;
78074;Laerm;67283;50.960;13.856;2023-02-28T14:15:26;63.12;37.14;76.89;;
78074;Laerm;67283;50.960;13.856;2023-02-28T14:17:55;63.80;38.06;72.61;;